Terminal Aerodrome Forecast
Issued by NWS

Home | Current Version | Previous Version | Text Only | Print | Product List | Glossary On
Versions: 1 2 3 4 5 6 7 8 9 10 11 12 13 14 15
000
FTUS46 KPDT 240200 AAA
TAFALW
TAF AMD
KALW 240200Z 2402/2424 22013KT P6SM SCT040 BKN060
     FM240600 19010KT P6SM SCT080
     FM241500 23015KT P6SM SCT080=

USA.gov is the U.S. government's official web portal to all federal, state and local government web resources and services.